Terminal Aerodrome Forecast
Issued by NWS Austin/San Antonio, TX

Home | Current Version | Previous Version | Text Only | Print | Product List | Glossary On
Versions: 1 2 3 4 5 6 7 8 9 10 11 12 13 14 15 16 17 18 19
000
FTUS44 KEWX 302300
TAFSAT
TAF
KSAT 302339Z 3100/0106 07009KT P6SM FEW035 FEW060 BKN200
     FM310800 11008KT P6SM OVC020
     FM311200 12009KT 3SM BR OVC008
     FM311700 13008KT 2SM -RA BR OVC007
     FM010000 15011KT 1SM -RADZ OVC005=

USA.gov is the U.S. government's official web portal to all federal, state and local government web resources and services.